createdAt,value
2022-08-25T00:00:18.006Z,97792.37
2022-08-25T00:03:04.496Z,97790.45
2022-08-25T00:05:33.639Z,97793.23
2022-08-25T00:08:03.868Z,97794.56
2022-08-25T00:10:35.122Z,97795.61
2022-08-25T00:13:05.027Z,97796.70
2022-08-25T00:15:33.637Z,97798.21
2022-08-25T00:18:02.216Z,97794.29
2022-08-25T00:20:33.446Z,97788.23
2022-08-25T00:23:01.743Z,97785.73
2022-08-25T00:25:29.997Z,97776.75
2022-08-25T00:27:59.307Z,97776.24
2022-08-25T00:30:27.674Z,97774.77
2022-08-25T00:32:57.435Z,97772.88
2022-08-25T00:35:26.480Z,97767.03
2022-08-25T00:37:54.680Z,97764.63
2022-08-25T00:40:25.660Z,97760.19
2022-08-25T00:42:54.724Z,97758.66
2022-08-25T00:45:23.473Z,97759.14
2022-08-25T00:47:51.658Z,97760.23
2022-08-25T00:50:22.741Z,97757.77
2022-08-25T00:52:57.839Z,97755.38
2022-08-25T00:55:31.020Z,97755.40
2022-08-25T00:58:21.315Z,97757.16
2022-08-25T01:00:53.068Z,97756.22
2022-08-25T01:03:33.015Z,97753.78
2022-08-25T01:06:04.532Z,97757.30
2022-08-25T01:08:33.676Z,97753.20
2022-08-25T01:11:07.204Z,97751.81
2022-08-25T01:13:44.365Z,97747.88
2022-08-25T01:16:15.146Z,97753.18
2022-08-25T01:18:50.453Z,97750.05
2022-08-25T01:21:20.511Z,97743.81
2022-08-25T01:23:50.478Z,97740.07
2022-08-25T01:26:32.650Z,97741.86
2022-08-25T01:29:21.638Z,97734.29
2022-08-25T01:32:01.789Z,97737.90
2022-08-25T01:34:34.679Z,97738.86
2022-08-25T01:37:03.234Z,97736.09
2022-08-25T01:39:34.095Z,97738.73
2022-08-25T01:42:11.792Z,97737.04
2022-08-25T01:44:43.494Z,97734.92
2022-08-25T01:47:13.364Z,97735.87
2022-08-25T01:49:41.868Z,97741.21
2022-08-25T01:52:25.074Z,97743.23
2022-08-25T01:54:53.244Z,97742.07
2022-08-25T01:57:22.653Z,97740.84
2022-08-25T01:59:50.935Z,97734.60
2022-08-25T02:02:19.010Z,97733.82
2022-08-25T02:04:47.995Z,97731.27
2022-08-25T02:07:16.266Z,97727.26
2022-08-25T02:09:44.650Z,97725.61
2022-08-25T02:12:13.131Z,97728.41
2022-08-25T02:14:41.697Z,97724.95
2022-08-25T02:17:10.303Z,97722.63
2022-08-25T02:19:38.386Z,97724.81
2022-08-25T02:22:06.652Z,97726.04
2022-08-25T02:24:35.430Z,97724.61
2022-08-25T02:27:04.190Z,97727.05
2022-08-25T02:29:33.014Z,97731.60
2022-08-25T02:32:01.289Z,97734.58
2022-08-25T02:34:29.467Z,97731.94
2022-08-25T02:36:58.018Z,97734.23
2022-08-25T02:39:26.116Z,97736.58
2022-08-25T02:41:54.809Z,97735.31
2022-08-25T02:44:22.905Z,97738.08
2022-08-25T02:46:51.051Z,97739.86
2022-08-25T02:49:19.136Z,97744.64
2022-08-25T02:51:47.297Z,97747.52
2022-08-25T02:54:16.389Z,97746.60
2022-08-25T02:56:44.670Z,97750.42
2022-08-25T02:59:12.841Z,97748.73
2022-08-25T03:01:40.930Z,97754.02
2022-08-25T03:04:09.295Z,97754.13
2022-08-25T03:06:37.895Z,97751.63
2022-08-25T03:09:05.945Z,97748.89
2022-08-25T03:11:34.269Z,97746.88
2022-08-25T03:14:02.399Z,97745.98
2022-08-25T03:16:31.857Z,97748.00
2022-08-25T03:19:01.105Z,97749.98
2022-08-25T03:21:29.917Z,97748.59
2022-08-25T03:23:59.016Z,97751.55
2022-08-25T03:26:45.489Z,97755.98
2022-08-25T03:29:14.175Z,97761.49
2022-08-25T03:31:44.940Z,97763.69
2022-08-25T03:34:16.977Z,97763.73
2022-08-25T03:36:47.241Z,97762.98
2022-08-25T03:39:16.123Z,97767.99
2022-08-25T03:41:44.788Z,97768.34
2022-08-25T03:44:14.179Z,97768.55
2022-08-25T03:46:47.775Z,97767.55
2022-08-25T03:49:23.143Z,97768.88
2022-08-25T03:51:54.984Z,97776.58
2022-08-25T03:54:26.053Z,97779.27
2022-08-25T03:56:55.050Z,97777.02
2022-08-25T03:59:23.294Z,97772.77
2022-08-25T04:01:55.099Z,97769.36
2022-08-25T04:04:23.881Z,97765.39
2022-08-25T04:06:53.149Z,97765.79
2022-08-25T04:09:21.930Z,97766.22
2022-08-25T04:11:52.886Z,97764.70
2022-08-25T04:14:23.862Z,97763.55
2022-08-25T04:16:53.275Z,97768.92
2022-08-25T04:19:22.313Z,97772.33
2022-08-25T04:21:51.868Z,97772.11
2022-08-25T04:24:25.311Z,97771.16
2022-08-25T04:26:54.209Z,97772.64
2022-08-25T04:29:24.041Z,97772.15
2022-08-25T04:31:53.962Z,97772.98
2022-08-25T04:34:29.555Z,97773.13
2022-08-25T04:37:06.570Z,97775.95
2022-08-25T04:39:35.041Z,97780.00
2022-08-25T04:42:03.644Z,97780.67
2022-08-25T04:44:32.399Z,97778.73
2022-08-25T04:47:01.621Z,97774.33
2022-08-25T04:49:30.096Z,97777.24
2022-08-25T04:51:58.269Z,97782.05
2022-08-25T04:54:28.360Z,97783.40
2022-08-25T04:56:58.457Z,97780.89
2022-08-25T04:59:29.943Z,97777.39
2022-08-25T05:02:02.766Z,97778.75
2022-08-25T05:04:33.835Z,97781.24
2022-08-25T05:07:03.967Z,97781.77
2022-08-25T05:09:33.409Z,97777.90
2022-08-25T05:12:02.837Z,97775.95
2022-08-25T05:14:33.241Z,97781.96
2022-08-25T05:17:02.279Z,97783.34
2022-08-25T05:19:31.447Z,97783.27
2022-08-25T05:21:59.624Z,97780.23
2022-08-25T05:24:28.348Z,97782.38
2022-08-25T05:26:57.488Z,97787.61
2022-08-25T05:29:26.077Z,97791.92
2022-08-25T05:31:54.723Z,97785.46
2022-08-25T05:34:23.135Z,97785.42
2022-08-25T05:36:51.724Z,97787.21
2022-08-25T05:39:19.815Z,97787.69
2022-08-25T05:41:47.915Z,97788.30
2022-08-25T05:44:20.844Z,97789.82
2022-08-25T05:46:50.186Z,97787.13
2022-08-25T05:49:18.769Z,97785.14
2022-08-25T05:51:46.909Z,97788.92
2022-08-25T05:54:15.185Z,97788.48
2022-08-25T05:56:43.420Z,97785.86
2022-08-25T05:59:11.641Z,97788.15
2022-08-25T06:01:58.383Z,97779.55
2022-08-25T06:04:26.623Z,97782.84
2022-08-25T06:06:56.030Z,97782.59
2022-08-25T06:09:24.445Z,97783.52
2022-08-25T06:11:55.142Z,97782.11
2022-08-25T06:14:25.365Z,97783.56
2022-08-25T06:16:53.534Z,97784.02
2022-08-25T06:19:23.739Z,97785.09
2022-08-25T06:21:56.917Z,97785.12
2022-08-25T06:24:27.511Z,97784.64
2022-08-25T06:26:57.090Z,97783.48
2022-08-25T06:29:25.676Z,97786.88
2022-08-25T06:31:53.775Z,97789.32
2022-08-25T06:34:23.957Z,97794.23
2022-08-25T06:36:53.281Z,97789.28
2022-08-25T06:39:22.424Z,97784.34
2022-08-25T06:41:55.175Z,97787.56
2022-08-25T06:44:28.032Z,97787.34
2022-08-25T06:46:56.227Z,97783.69
2022-08-25T06:49:29.278Z,97783.58
2022-08-25T06:51:59.343Z,97785.11
2022-08-25T06:54:27.529Z,97789.09
2022-08-25T06:56:55.657Z,97786.25
2022-08-25T06:59:26.430Z,97783.61
2022-08-25T07:02:03.215Z,97782.71
2022-08-25T07:04:33.710Z,97781.63
2022-08-25T07:07:02.202Z,97779.56
2022-08-25T07:09:31.074Z,97775.38
2022-08-25T07:11:59.558Z,97771.73
2022-08-25T07:14:27.728Z,97773.49
2022-08-25T07:16:55.999Z,97775.41
2022-08-25T07:19:24.098Z,97772.69
2022-08-25T07:21:54.355Z,97767.63
2022-08-25T07:24:23.428Z,97769.50
2022-08-25T07:26:52.333Z,97767.66
2022-08-25T07:29:26.572Z,97764.91
2022-08-25T07:32:03.625Z,97759.85
2022-08-25T07:34:52.069Z,97760.77
2022-08-25T07:40:14.388Z,97757.98
2022-08-25T07:42:42.562Z,97758.84
2022-08-25T07:45:12.882Z,97754.88
2022-08-25T07:47:41.083Z,97753.80
2022-08-25T07:50:12.415Z,97750.92
2022-08-25T07:52:41.947Z,97748.09
2022-08-25T07:55:11.146Z,97747.84
2022-08-25T07:57:41.029Z,97747.05
2022-08-25T08:00:11.202Z,97747.73
2022-08-25T08:02:44.585Z,97745.90
2022-08-25T08:05:14.546Z,97745.52
2022-08-25T08:07:43.921Z,97742.33
2022-08-25T08:13:03.894Z,97738.91
2022-08-25T08:15:33.062Z,97739.02
2022-08-25T08:18:01.446Z,97735.48
2022-08-25T08:20:32.721Z,97730.31
2022-08-25T08:23:11.859Z,97730.11
2022-08-25T08:25:40.095Z,97727.33
2022-08-25T08:28:08.388Z,97726.23
2022-08-25T08:30:39.208Z,97725.33
2022-08-25T08:33:11.236Z,97721.57
2022-08-25T08:35:41.808Z,97719.59
2022-08-25T08:38:17.224Z,97718.27
2022-08-25T08:42:07.714Z,97713.69
2022-08-25T08:44:35.931Z,97711.91
2022-08-25T08:47:14.259Z,97709.96
2022-08-25T08:50:23.972Z,97709.58
2022-08-25T08:53:06.701Z,97707.06
2022-08-25T08:55:38.869Z,97704.11
2022-08-25T08:58:26.192Z,97704.56
2022-08-25T09:00:58.492Z,97701.03
2022-08-25T09:03:43.389Z,97695.17
2022-08-25T09:06:26.147Z,97698.52
2022-08-25T09:08:57.766Z,97698.49
2022-08-25T09:11:53.242Z,97695.05
2022-08-25T09:14:33.677Z,97694.35
2022-08-25T09:17:30.559Z,97692.52
2022-08-25T09:20:22.253Z,97697.38
2022-08-25T09:23:05.578Z,97694.10
2022-08-25T09:25:53.003Z,97687.59
2022-08-25T09:28:26.812Z,97686.08
2022-08-25T09:31:06.018Z,97683.42
2022-08-25T09:33:35.649Z,97678.52
2022-08-25T09:36:06.272Z,97676.52
2022-08-25T09:38:37.673Z,97678.02
2022-08-25T09:41:08.095Z,97671.77
2022-08-25T09:43:44.776Z,97667.23
2022-08-25T09:46:16.139Z,97665.02
2022-08-25T09:48:55.987Z,97658.81
2022-08-25T09:51:43.034Z,97656.30
2022-08-25T09:54:14.022Z,97654.55
2022-08-25T09:56:57.263Z,97655.29
2022-08-25T09:59:34.978Z,97651.14
2022-08-25T10:02:25.866Z,97644.21
2022-08-25T10:04:55.190Z,97642.45
2022-08-25T10:07:35.990Z,97638.36
2022-08-25T10:10:18.332Z,97636.45
2022-08-25T10:12:51.253Z,97631.77
2022-08-25T10:15:29.580Z,97632.09
2022-08-25T10:18:29.577Z,97627.38
2022-08-25T10:21:11.203Z,97623.67
2022-08-25T10:23:52.818Z,97626.55
2022-08-25T10:26:53.349Z,97619.35
2022-08-25T10:29:27.340Z,97613.48
2022-08-25T10:32:06.236Z,97613.73
2022-08-25T10:35:17.540Z,97613.42
2022-08-25T10:38:13.971Z,97614.13
2022-08-25T10:41:02.734Z,97610.19
2022-08-25T10:43:41.234Z,97607.08
2022-08-25T10:46:16.560Z,97602.55
2022-08-25T10:49:02.738Z,97600.09
2022-08-25T10:51:51.024Z,97599.42
2022-08-25T10:54:25.834Z,97599.27
2022-08-25T10:57:02.375Z,97598.25
2022-08-25T10:59:46.900Z,97595.23
2022-08-25T11:02:52.754Z,97595.55
2022-08-25T11:05:41.017Z,97589.55
2022-08-25T11:08:12.758Z,97581.56
2022-08-25T11:10:44.518Z,97582.61
2022-08-25T11:13:43.470Z,97583.84
2022-08-25T11:16:20.760Z,97579.19
2022-08-25T11:19:18.226Z,97574.35
2022-08-25T11:22:28.383Z,97568.05
2022-08-25T11:24:57.313Z,97568.20
2022-08-25T11:27:44.019Z,97566.39
2022-08-25T11:30:15.093Z,97567.45
2022-08-25T11:32:47.899Z,97564.84
2022-08-25T11:35:19.309Z,97555.42
2022-08-25T11:38:18.499Z,97551.54
2022-08-25T11:41:21.533Z,97548.71
2022-08-25T11:44:04.818Z,97544.36
2022-08-25T11:47:01.078Z,97541.77
2022-08-25T11:49:31.783Z,97541.36
2022-08-25T11:52:02.913Z,97538.95
2022-08-25T11:54:43.149Z,97540.36
2022-08-25T11:57:17.153Z,97539.09
2022-08-25T11:59:49.652Z,97536.52
2022-08-25T12:02:47.399Z,97537.45
2022-08-25T12:05:15.696Z,97538.81
2022-08-25T12:07:46.798Z,97539.02
2022-08-25T12:10:22.700Z,97535.03
2022-08-25T12:13:04.793Z,97532.76
2022-08-25T12:15:58.260Z,97531.06
2022-08-25T12:18:29.651Z,97531.64
2022-08-25T12:20:57.560Z,97529.83
2022-08-25T12:23:29.524Z,97533.65
2022-08-25T12:26:04.391Z,97531.45
2022-08-25T12:29:14.715Z,97530.74
2022-08-25T12:31:47.284Z,97526.77
2022-08-25T12:34:40.082Z,97526.96
2022-08-25T12:37:21.260Z,97527.77
2022-08-25T12:39:49.446Z,97526.13
2022-08-25T12:42:40.137Z,97524.15
2022-08-25T12:45:15.006Z,97524.05
2022-08-25T12:47:47.680Z,97520.80
2022-08-25T12:50:42.036Z,97520.42
2022-08-25T12:53:39.034Z,97514.04
2022-08-25T12:56:25.719Z,97510.33
2022-08-25T12:59:02.573Z,97510.15
2022-08-25T13:01:44.072Z,97508.61
2022-08-25T13:04:44.555Z,97505.66
2022-08-25T13:07:33.997Z,97502.71
2022-08-25T13:10:32.819Z,97498.49
2022-08-25T13:13:10.539Z,97496.91
2022-08-25T13:15:45.242Z,97495.02
2022-08-25T13:18:15.215Z,97491.51
2022-08-25T13:20:47.407Z,97493.52
2022-08-25T13:23:26.495Z,97492.89
2022-08-25T13:25:58.378Z,97488.72
2022-08-25T13:28:31.095Z,97486.94
2022-08-25T13:31:17.666Z,97485.27
2022-08-25T13:33:54.829Z,97486.80
2022-08-25T13:36:54.251Z,97484.46
2022-08-25T13:39:52.596Z,97482.38
2022-08-25T13:42:17.609Z,97481.80
2022-08-25T13:44:52.401Z,97483.73
2022-08-25T13:47:45.312Z,97485.77
2022-08-25T13:50:39.627Z,97480.00
2022-08-25T13:53:15.642Z,97480.13
2022-08-25T13:55:52.244Z,97479.30
2022-08-25T13:58:24.346Z,97479.31
2022-08-25T14:01:23.739Z,97481.02
2022-08-25T14:04:32.591Z,97479.20
2022-08-25T14:07:09.599Z,97477.21
2022-08-25T14:09:49.672Z,97475.04
2022-08-25T14:12:37.895Z,97473.70
2022-08-25T14:15:17.691Z,97469.14
2022-08-25T14:18:00.870Z,97470.27
2022-08-25T14:20:31.685Z,97468.25
2022-08-25T14:23:05.418Z,97465.95
2022-08-25T14:25:40.691Z,97465.59
2022-08-25T14:28:14.444Z,97466.90
2022-08-25T14:30:52.317Z,97462.71
2022-08-25T14:33:24.784Z,97461.68
2022-08-25T14:35:55.258Z,97461.73
2022-08-25T14:38:23.534Z,97459.44
2022-08-25T14:40:54.004Z,97460.98
2022-08-25T14:43:23.720Z,97460.77
2022-08-25T14:45:53.051Z,97463.40
2022-08-25T14:48:32.921Z,97462.07
2022-08-25T14:51:01.813Z,97464.09
2022-08-25T14:53:30.293Z,97460.70
2022-08-25T14:55:59.047Z,97458.84
2022-08-25T14:58:33.976Z,97458.83
2022-08-25T15:01:03.388Z,97461.80
2022-08-25T15:03:38.331Z,97459.70
2022-08-25T15:06:07.381Z,97458.64
2022-08-25T15:08:58.213Z,97460.30
2022-08-25T15:11:27.163Z,97461.10
2022-08-25T15:13:57.382Z,97456.85
2022-08-25T15:16:35.069Z,97458.62
2022-08-25T15:19:08.551Z,97456.80
2022-08-25T15:21:37.946Z,97456.85
2022-08-25T15:24:09.387Z,97456.98
2022-08-25T15:26:46.582Z,97458.79
2022-08-25T15:29:14.895Z,97459.21
2022-08-25T15:31:44.252Z,97457.53
2022-08-25T15:34:13.579Z,97456.38
2022-08-25T15:36:42.492Z,97453.75
2022-08-25T15:39:11.244Z,97450.23
2022-08-25T15:41:39.868Z,97448.48
2022-08-25T15:44:12.428Z,97446.90
2022-08-25T15:46:41.776Z,97444.17
2022-08-25T15:49:15.628Z,97444.66
2022-08-25T15:51:49.026Z,97443.20
2022-08-25T15:54:16.904Z,97441.15
2022-08-25T15:56:46.089Z,97440.38
2022-08-25T15:59:14.619Z,97445.95
2022-08-25T16:01:46.467Z,97445.98
2022-08-25T16:04:15.020Z,97447.85
2022-08-25T16:06:42.990Z,97443.88
2022-08-25T16:09:11.387Z,97446.89
2022-08-25T16:11:39.664Z,97442.59
2022-08-25T16:14:07.915Z,97446.46
2022-08-25T16:16:36.578Z,97447.34
2022-08-25T16:19:05.596Z,97447.86
2022-08-25T16:21:36.997Z,97446.73
2022-08-25T16:24:10.363Z,97450.28
2022-08-25T16:26:48.081Z,97450.02
2022-08-25T16:29:17.753Z,97456.01
2022-08-25T16:31:53.455Z,97454.33
2022-08-25T16:34:24.658Z,97453.73
2022-08-25T16:36:53.636Z,97451.57
2022-08-25T16:39:23.902Z,97450.73
2022-08-25T16:41:53.128Z,97455.05
2022-08-25T16:44:22.901Z,97456.42
2022-08-25T16:46:54.630Z,97458.35
2022-08-25T16:49:24.423Z,97463.09
2022-08-25T16:51:57.793Z,97462.85
2022-08-25T16:54:45.167Z,97463.46
2022-08-25T16:57:13.677Z,97462.90
2022-08-25T16:59:43.862Z,97463.40
2022-08-25T17:02:12.445Z,97466.53
2022-08-25T17:04:40.956Z,97468.91
2022-08-25T17:07:09.022Z,97474.08
2022-08-25T17:09:37.150Z,97478.89
2022-08-25T17:12:05.860Z,97482.20
2022-08-25T17:14:33.824Z,97480.30
2022-08-25T17:17:03.466Z,97481.63
2022-08-25T17:19:35.005Z,97486.39
2022-08-25T17:22:03.473Z,97489.73
2022-08-25T17:24:34.882Z,97495.28
2022-08-25T17:27:03.405Z,97499.19
2022-08-25T17:29:31.598Z,97502.94
2022-08-25T17:32:00.110Z,97504.75
2022-08-25T17:34:29.205Z,97509.73
2022-08-25T17:36:58.455Z,97518.34
2022-08-25T17:39:27.779Z,97520.88
2022-08-25T17:41:56.437Z,97525.65
2022-08-25T17:44:24.846Z,97533.09
2022-08-25T17:46:53.196Z,97532.38
2022-08-25T17:49:22.551Z,97538.89
2022-08-25T17:51:51.158Z,97544.17
2022-08-25T17:54:20.062Z,97544.88
2022-08-25T17:56:48.867Z,97548.88
2022-08-25T17:59:18.987Z,97549.05
2022-08-25T18:01:49.603Z,97551.77
2022-08-25T18:04:23.589Z,97555.79
2022-08-25T18:06:55.520Z,97557.09
2022-08-25T18:09:23.998Z,97560.17
2022-08-25T18:11:52.759Z,97561.39
2022-08-25T18:14:25.292Z,97563.92
2022-08-25T18:16:54.309Z,97561.68
2022-08-25T18:19:22.422Z,97560.37
2022-08-25T18:21:51.927Z,97559.66
2022-08-25T18:24:20.617Z,97563.45
2022-08-25T18:26:51.757Z,97562.60
2022-08-25T18:29:21.037Z,97564.02
2022-08-25T18:31:49.864Z,97565.88
2022-08-25T18:34:21.525Z,97567.05
2022-08-25T18:36:50.507Z,97564.13
2022-08-25T18:39:37.594Z,97568.05
2022-08-25T18:42:06.854Z,97567.99
2022-08-25T18:44:35.069Z,97569.82
2022-08-25T18:47:07.521Z,97571.98
2022-08-25T18:49:37.636Z,97573.67
2022-08-25T18:52:06.175Z,97577.11
2022-08-25T18:54:35.968Z,97573.36
2022-08-25T18:57:04.977Z,97575.69
2022-08-25T18:59:37.283Z,97579.90
2022-08-25T19:02:06.648Z,97581.08
2022-08-25T19:04:34.699Z,97575.52
2022-08-25T19:07:03.694Z,97578.83
2022-08-25T19:09:32.810Z,97576.00
2022-08-25T19:12:01.006Z,97576.36
2022-08-25T19:14:29.134Z,97573.09
2022-08-25T19:16:58.820Z,97571.64
2022-08-25T19:19:27.574Z,97569.58
2022-08-25T19:21:55.908Z,97567.21
2022-08-25T19:24:24.185Z,97569.44
2022-08-25T19:26:54.679Z,97569.86
2022-08-25T19:29:23.915Z,97568.23
2022-08-25T19:31:53.376Z,97566.74
2022-08-25T19:34:28.391Z,97564.05
2022-08-25T19:37:00.814Z,97562.44
2022-08-25T19:39:30.561Z,97565.55
2022-08-25T19:41:58.701Z,97570.89
2022-08-25T19:44:28.111Z,97567.66
2022-08-25T19:46:57.139Z,97567.98
2022-08-25T19:49:31.825Z,97571.74
2022-08-25T19:52:04.278Z,97571.75
2022-08-25T19:54:37.719Z,97575.21
2022-08-25T19:57:07.968Z,97575.41
2022-08-25T19:59:42.961Z,97574.57
2022-08-25T20:02:22.288Z,97573.98
2022-08-25T20:04:53.748Z,97571.81
2022-08-25T20:07:24.904Z,97570.36
2022-08-25T20:09:54.682Z,97571.39
2022-08-25T20:12:24.721Z,97570.42
2022-08-25T20:14:54.572Z,97567.34
2022-08-25T20:17:26.274Z,97565.59
2022-08-25T20:20:04.699Z,97568.39
2022-08-25T20:22:33.698Z,97566.26
2022-08-25T20:25:13.425Z,97569.49
2022-08-25T20:27:47.970Z,97568.41
2022-08-25T20:30:22.326Z,97565.27
2022-08-25T20:32:51.588Z,97561.66
2022-08-25T20:35:21.558Z,97562.73
2022-08-25T20:37:56.854Z,97564.37
2022-08-25T20:40:27.267Z,97565.66
2022-08-25T20:42:57.139Z,97564.90
2022-08-25T20:45:25.361Z,97561.86
2022-08-25T20:47:53.802Z,97566.10
2022-08-25T20:50:23.695Z,97560.88
2022-08-25T20:52:56.739Z,97557.77
2022-08-25T20:55:25.737Z,97555.02
2022-08-25T20:57:54.994Z,97554.52
2022-08-25T21:00:23.677Z,97552.05
2022-08-25T21:02:53.461Z,97550.58
2022-08-25T21:05:21.635Z,97550.17
2022-08-25T21:07:49.703Z,97548.63
2022-08-25T21:10:18.594Z,97547.77
2022-08-25T21:12:46.643Z,97552.04
2022-08-25T21:15:18.328Z,97555.89
2022-08-25T21:17:54.553Z,97555.08
2022-08-25T21:20:24.235Z,97554.70
2022-08-25T21:22:53.509Z,97553.48
2022-08-25T21:25:22.362Z,97550.08
2022-08-25T21:27:50.363Z,97548.63
2022-08-25T21:30:18.664Z,97546.92
2022-08-25T21:32:53.326Z,97545.39
2022-08-25T21:35:23.360Z,97541.85
2022-08-25T21:37:53.269Z,97544.17
2022-08-25T21:40:23.157Z,97547.32
2022-08-25T21:42:52.764Z,97547.79
2022-08-25T21:45:21.786Z,97555.02
2022-08-25T21:47:50.188Z,97558.84
2022-08-25T21:50:20.795Z,97555.05
2022-08-25T21:52:54.494Z,97558.38
2022-08-25T21:55:24.006Z,97559.30
2022-08-25T21:57:52.897Z,97555.64
2022-08-25T22:00:22.755Z,97552.49
2022-08-25T22:02:51.035Z,97554.02
2022-08-25T22:05:19.052Z,97556.09
2022-08-25T22:07:47.103Z,97555.57
2022-08-25T22:10:17.739Z,97557.14
2022-08-25T22:12:48.135Z,97560.14
2022-08-25T22:15:17.831Z,97559.09
2022-08-25T22:17:48.197Z,97558.89
2022-08-25T22:20:18.236Z,97553.61
2022-08-25T22:22:46.437Z,97557.59
2022-08-25T22:25:14.816Z,97554.04
2022-08-25T22:27:43.173Z,97552.73
2022-08-25T22:30:13.749Z,97549.08
2022-08-25T22:32:42.645Z,97549.33
2022-08-25T22:35:14.163Z,97549.40
2022-08-25T22:37:43.314Z,97543.52
2022-08-25T22:40:12.177Z,97543.30
2022-08-25T22:42:42.309Z,97543.94
2022-08-25T22:45:12.938Z,97542.80
2022-08-25T22:47:41.313Z,97542.20
2022-08-25T22:50:09.898Z,97538.67
2022-08-25T22:52:38.533Z,97535.70
2022-08-25T22:55:11.902Z,97535.60
2022-08-25T22:57:41.513Z,97535.27
2022-08-25T23:00:14.016Z,97535.79
2022-08-25T23:02:43.386Z,97530.86
2022-08-25T23:05:13.633Z,97528.89
2022-08-25T23:07:42.274Z,97528.83
2022-08-25T23:10:12.466Z,97520.81
2022-08-25T23:12:43.787Z,97520.60
2022-08-25T23:15:12.977Z,97515.13
2022-08-25T23:17:42.602Z,97516.09
2022-08-25T23:20:29.948Z,97518.91
2022-08-25T23:22:58.917Z,97518.19
2022-08-25T23:25:27.135Z,97523.96
2022-08-25T23:27:55.097Z,97520.66
2022-08-25T23:30:27.133Z,97520.67
2022-08-25T23:32:55.401Z,97519.52
2022-08-25T23:35:23.395Z,97518.17
2022-08-25T23:37:51.598Z,97515.59
2022-08-25T23:40:19.731Z,97520.64
2022-08-25T23:42:48.201Z,97518.96
2022-08-25T23:45:16.707Z,97518.52
2022-08-25T23:47:44.629Z,97517.25
2022-08-25T23:50:12.866Z,97513.20
2022-08-25T23:52:40.956Z,97508.83
2022-08-25T23:55:10.052Z,97506.02
2022-08-25T23:57:38.322Z,97508.98
